Briefing drone pour Nevers (LFQG)

Rechercher une autre localisation

Conditions de vol :


Nous sommes le : Jeudi 20 janvier 2022
Il est 05:03 UTC (06:03 LT)

Lever de soleil : 06:58 UTC (07:58 LT)
Coucher de soleil : 16:58 UTC (17:58 LT)

Météo

L'essentiel des conditions de vol

VIGILANCE MÉTÉO FRANCE - Nièvre (58)
Pas de vigilances particulieres
CARTE TEMSI
CARTES DES FRONTS
METAR de LFQG
LFQG 191800Z AUTO 25004KT 220V300 9999 OVC012 03/02 Q1029

Date d'émission: 19/01/2022
Heure d'émission: 18:00 UTC
Vent: 250° (variable du 220° au 300°) pour 4 KT (7 km/h)
Visibilité horizontale: > 10 km
Plafond :
- Couvert à 1200ft (366m)
Température: 3 °C
Point de rosée: 2 °C
Humidité: 93%
Pression (QNH): 1029 hPa
Prévision 24h pour Nevers
Vent : 15° pour 3 KT (11 km/h)
Temperature Maxi: -1 °C
Temperature Min: -1 °C
Humidité : 92%
Condition : Peu nuageux



Warning: count(): Parameter must be an array or an object that implements Countable in /homepages/6/d509196549/htdocs/droneoxygene/briefing.php on line 743
WEBCAM POUR NEVERS

Réglementation

Voler en sécurité

CARTES AERONAUTIQUE 1/500.000
CARTES VAC (LFQG)
SUP AIP




Chargement des AIP...
NOTAM (NEVERS + Terrain à proximité / FIR )




Chargement des NOTAMS...
CONTACT PREFECTURE 58


Avertissement : Les données mises à disposition sont indicatives. Oxygène Drone ne pourra être tenu responsable de dégâts causés aux biens et aux personnes.